sensor_id;sensor_type;location;lat;lon;timestamp;P1;durP1;ratioP1;P2;durP2;ratioP2
4980;SDS011;2507;50.392;7.482;2023-07-20T00:00:22;4.20;;;3.10;;
4980;SDS011;2507;50.392;7.482;2023-07-20T00:02:49;3.50;;;3.20;;
4980;SDS011;2507;50.392;7.482;2023-07-20T00:05:15;3.60;;;2.70;;
4980;SDS011;2507;50.392;7.482;2023-07-20T00:07:43;3.33;;;3.10;;
4980;SDS011;2507;50.392;7.482;2023-07-20T00:10:08;3.30;;;3.00;;
4980;SDS011;2507;50.392;7.482;2023-07-20T00:12:34;5.90;;;3.60;;
4980;SDS011;2507;50.392;7.482;2023-07-20T00:14:59;5.13;;;3.53;;
4980;SDS011;2507;50.392;7.482;2023-07-20T00:17:24;3.83;;;3.33;;
4980;SDS011;2507;50.392;7.482;2023-07-20T00:19:50;5.50;;;3.30;;
4980;SDS011;2507;50.392;7.482;2023-07-20T00:22:15;4.43;;;3.30;;
4980;SDS011;2507;50.392;7.482;2023-07-20T00:24:40;5.43;;;3.60;;
4980;SDS011;2507;50.392;7.482;2023-07-20T00:27:05;3.90;;;3.60;;
4980;SDS011;2507;50.392;7.482;2023-07-20T00:29:31;8.30;;;4.13;;
4980;SDS011;2507;50.392;7.482;2023-07-20T00:31:56;5.77;;;3.67;;
4980;SDS011;2507;50.392;7.482;2023-07-20T00:34:21;3.60;;;3.00;;
4980;SDS011;2507;50.392;7.482;2023-07-20T00:36:47;3.80;;;3.40;;
4980;SDS011;2507;50.392;7.482;2023-07-20T00:39:14;4.23;;;3.00;;
4980;SDS011;2507;50.392;7.482;2023-07-20T00:41:39;4.50;;;3.13;;
4980;SDS011;2507;50.392;7.482;2023-07-20T00:44:04;3.43;;;3.07;;
4980;SDS011;2507;50.392;7.482;2023-07-20T00:46:30;3.40;;;3.20;;
4980;SDS011;2507;50.392;7.482;2023-07-20T00:48:57;3.77;;;3.20;;
4980;SDS011;2507;50.392;7.482;2023-07-20T00:51:23;5.73;;;3.80;;
4980;SDS011;2507;50.392;7.482;2023-07-20T00:53:51;3.57;;;3.10;;
4980;SDS011;2507;50.392;7.482;2023-07-20T00:56:17;3.37;;;2.83;;
4980;SDS011;2507;50.392;7.482;2023-07-20T00:58:43;4.30;;;2.97;;
4980;SDS011;2507;50.392;7.482;2023-07-20T01:01:08;5.33;;;3.50;;
4980;SDS011;2507;50.392;7.482;2023-07-20T01:03:33;3.37;;;2.90;;
4980;SDS011;2507;50.392;7.482;2023-07-20T01:06:04;3.63;;;3.43;;
4980;SDS011;2507;50.392;7.482;2023-07-20T01:08:43;3.97;;;3.67;;
4980;SDS011;2507;50.392;7.482;2023-07-20T01:11:33;3.93;;;3.00;;
4980;SDS011;2507;50.392;7.482;2023-07-20T01:14:03;8.83;;;3.40;;
4980;SDS011;2507;50.392;7.482;2023-07-20T01:16:30;3.87;;;3.57;;
4980;SDS011;2507;50.392;7.482;2023-07-20T01:18:55;3.50;;;3.20;;
4980;SDS011;2507;50.392;7.482;2023-07-20T01:21:26;7.27;;;3.03;;
4980;SDS011;2507;50.392;7.482;2023-07-20T01:32:44;7.40;;;3.13;;
4980;SDS011;2507;50.392;7.482;2023-07-20T01:35:12;6.40;;;3.43;;
4980;SDS011;2507;50.392;7.482;2023-07-20T01:37:41;3.10;;;2.90;;
4980;SDS011;2507;50.392;7.482;2023-07-20T01:40:10;5.03;;;3.47;;
4980;SDS011;2507;50.392;7.482;2023-07-20T01:42:37;3.10;;;2.80;;
4980;SDS011;2507;50.392;7.482;2023-07-20T01:45:03;3.13;;;2.93;;
4980;SDS011;2507;50.392;7.482;2023-07-20T01:47:28;2.70;;;2.30;;
4980;SDS011;2507;50.392;7.482;2023-07-20T01:49:54;5.00;;;3.60;;
4980;SDS011;2507;50.392;7.482;2023-07-20T01:52:19;5.03;;;3.37;;
4980;SDS011;2507;50.392;7.482;2023-07-20T01:54:44;3.50;;;3.00;;
4980;SDS011;2507;50.392;7.482;2023-07-20T01:57:09;4.07;;;2.80;;
4980;SDS011;2507;50.392;7.482;2023-07-20T01:59:35;6.80;;;3.40;;
4980;SDS011;2507;50.392;7.482;2023-07-20T02:02:00;4.23;;;3.50;;
4980;SDS011;2507;50.392;7.482;2023-07-20T02:04:25;4.10;;;3.37;;
4980;SDS011;2507;50.392;7.482;2023-07-20T02:06:50;5.20;;;3.00;;
4980;SDS011;2507;50.392;7.482;2023-07-20T02:09:16;3.40;;;3.10;;
4980;SDS011;2507;50.392;7.482;2023-07-20T02:11:41;3.57;;;2.73;;
4980;SDS011;2507;50.392;7.482;2023-07-20T02:14:06;4.00;;;2.80;;
4980;SDS011;2507;50.392;7.482;2023-07-20T02:16:31;2.83;;;2.63;;
4980;SDS011;2507;50.392;7.482;2023-07-20T02:18:57;4.33;;;3.10;;
4980;SDS011;2507;50.392;7.482;2023-07-20T02:21:23;4.20;;;3.80;;
4980;SDS011;2507;50.392;7.482;2023-07-20T02:23:48;8.00;;;3.10;;
4980;SDS011;2507;50.392;7.482;2023-07-20T02:26:14;3.23;;;3.00;;
4980;SDS011;2507;50.392;7.482;2023-07-20T02:28:39;4.83;;;3.60;;
4980;SDS011;2507;50.392;7.482;2023-07-20T02:31:06;3.03;;;2.83;;
4980;SDS011;2507;50.392;7.482;2023-07-20T02:33:31;4.67;;;3.50;;
4980;SDS011;2507;50.392;7.482;2023-07-20T02:35:56;3.60;;;3.30;;
4980;SDS011;2507;50.392;7.482;2023-07-20T02:38:22;4.60;;;3.30;;
4980;SDS011;2507;50.392;7.482;2023-07-20T02:40:47;4.07;;;3.20;;
4980;SDS011;2507;50.392;7.482;2023-07-20T02:43:12;5.27;;;3.73;;
4980;SDS011;2507;50.392;7.482;2023-07-20T02:45:40;5.77;;;3.73;;
4980;SDS011;2507;50.392;7.482;2023-07-20T02:48:07;6.47;;;4.00;;
4980;SDS011;2507;50.392;7.482;2023-07-20T02:50:33;4.13;;;3.80;;
4980;SDS011;2507;50.392;7.482;2023-07-20T02:52:59;4.20;;;3.80;;
4980;SDS011;2507;50.392;7.482;2023-07-20T02:55:24;4.23;;;3.93;;
4980;SDS011;2507;50.392;7.482;2023-07-20T02:57:50;10.90;;;9.80;;
4980;SDS011;2507;50.392;7.482;2023-07-20T03:00:15;7.00;;;6.30;;
4980;SDS011;2507;50.392;7.482;2023-07-20T03:02:41;6.07;;;5.47;;
4980;SDS011;2507;50.392;7.482;2023-07-20T03:05:06;6.13;;;5.43;;
4980;SDS011;2507;50.392;7.482;2023-07-20T03:07:32;6.27;;;5.67;;
4980;SDS011;2507;50.392;7.482;2023-07-20T03:09:57;5.27;;;4.73;;
4980;SDS011;2507;50.392;7.482;2023-07-20T03:12:23;5.00;;;4.50;;
4980;SDS011;2507;50.392;7.482;2023-07-20T03:14:49;4.17;;;3.77;;
4980;SDS011;2507;50.392;7.482;2023-07-20T03:17:14;4.70;;;3.70;;
4980;SDS011;2507;50.392;7.482;2023-07-20T03:19:40;4.97;;;4.57;;
4980;SDS011;2507;50.392;7.482;2023-07-20T03:22:05;4.93;;;4.63;;
4980;SDS011;2507;50.392;7.482;2023-07-20T03:24:31;8.10;;;6.00;;
4980;SDS011;2507;50.392;7.482;2023-07-20T03:26:56;5.80;;;4.13;;
4980;SDS011;2507;50.392;7.482;2023-07-20T03:29:21;5.10;;;3.93;;
4980;SDS011;2507;50.392;7.482;2023-07-20T03:31:46;4.27;;;3.70;;
4980;SDS011;2507;50.392;7.482;2023-07-20T03:34:12;7.03;;;4.77;;
4980;SDS011;2507;50.392;7.482;2023-07-20T03:36:37;5.97;;;4.10;;
4980;SDS011;2507;50.392;7.482;2023-07-20T03:39:02;5.00;;;4.30;;
4980;SDS011;2507;50.392;7.482;2023-07-20T03:41:28;5.07;;;3.70;;
4980;SDS011;2507;50.392;7.482;2023-07-20T03:43:53;3.63;;;3.33;;
4980;SDS011;2507;50.392;7.482;2023-07-20T03:46:19;4.00;;;3.80;;
4980;SDS011;2507;50.392;7.482;2023-07-20T03:48:44;4.73;;;3.63;;
4980;SDS011;2507;50.392;7.482;2023-07-20T03:51:10;4.87;;;3.97;;
4980;SDS011;2507;50.392;7.482;2023-07-20T03:53:35;4.13;;;3.03;;
4980;SDS011;2507;50.392;7.482;2023-07-20T03:56:00;3.63;;;3.33;;
4980;SDS011;2507;50.392;7.482;2023-07-20T03:58:26;8.10;;;3.97;;
4980;SDS011;2507;50.392;7.482;2023-07-20T04:00:51;3.80;;;3.40;;
4980;SDS011;2507;50.392;7.482;2023-07-20T04:03:19;6.10;;;3.90;;
4980;SDS011;2507;50.392;7.482;2023-07-20T04:05:45;5.27;;;3.23;;
4980;SDS011;2507;50.392;7.482;2023-07-20T04:08:11;4.43;;;3.43;;
4980;SDS011;2507;50.392;7.482;2023-07-20T04:10:37;4.47;;;3.90;;
4980;SDS011;2507;50.392;7.482;2023-07-20T04:13:03;4.40;;;3.77;;
4980;SDS011;2507;50.392;7.482;2023-07-20T04:15:28;5.23;;;3.70;;
4980;SDS011;2507;50.392;7.482;2023-07-20T04:17:55;3.07;;;2.87;;
4980;SDS011;2507;50.392;7.482;2023-07-20T04:20:21;4.10;;;3.43;;
4980;SDS011;2507;50.392;7.482;2023-07-20T04:22:47;3.80;;;3.50;;
4980;SDS011;2507;50.392;7.482;2023-07-20T04:25:12;6.10;;;3.30;;
4980;SDS011;2507;50.392;7.482;2023-07-20T04:27:38;3.23;;;2.93;;
4980;SDS011;2507;50.392;7.482;2023-07-20T04:30:03;5.13;;;3.40;;
4980;SDS011;2507;50.392;7.482;2023-07-20T04:32:29;3.93;;;3.53;;
4980;SDS011;2507;50.392;7.482;2023-07-20T04:34:55;6.90;;;3.97;;
4980;SDS011;2507;50.392;7.482;2023-07-20T04:37:20;4.63;;;3.57;;
4980;SDS011;2507;50.392;7.482;2023-07-20T04:39:46;4.60;;;3.70;;
4980;SDS011;2507;50.392;7.482;2023-07-20T04:42:12;6.40;;;4.00;;
4980;SDS011;2507;50.392;7.482;2023-07-20T04:44:37;3.67;;;3.37;;
4980;SDS011;2507;50.392;7.482;2023-07-20T04:47:02;3.10;;;3.00;;
4980;SDS011;2507;50.392;7.482;2023-07-20T04:49:28;5.07;;;3.37;;
4980;SDS011;2507;50.392;7.482;2023-07-20T04:51:53;3.53;;;3.23;;
4980;SDS011;2507;50.392;7.482;2023-07-20T04:54:19;4.40;;;2.77;;
4980;SDS011;2507;50.392;7.482;2023-07-20T04:56:44;4.53;;;2.60;;
4980;SDS011;2507;50.392;7.482;2023-07-20T04:59:09;3.53;;;2.83;;
4980;SDS011;2507;50.392;7.482;2023-07-20T05:01:35;3.70;;;3.10;;
4980;SDS011;2507;50.392;7.482;2023-07-20T05:04:00;3.00;;;2.80;;
4980;SDS011;2507;50.392;7.482;2023-07-20T05:06:26;5.23;;;3.00;;
4980;SDS011;2507;50.392;7.482;2023-07-20T05:08:51;5.80;;;3.13;;
4980;SDS011;2507;50.392;7.482;2023-07-20T05:11:16;4.33;;;2.90;;
4980;SDS011;2507;50.392;7.482;2023-07-20T05:13:42;4.63;;;3.37;;
4980;SDS011;2507;50.392;7.482;2023-07-20T05:16:07;4.17;;;3.87;;
4980;SDS011;2507;50.392;7.482;2023-07-20T05:18:33;11.70;;;3.77;;
4980;SDS011;2507;50.392;7.482;2023-07-20T05:20:58;4.83;;;3.37;;
4980;SDS011;2507;50.392;7.482;2023-07-20T05:23:23;3.50;;;3.20;;
4980;SDS011;2507;50.392;7.482;2023-07-20T05:25:55;3.37;;;3.10;;
4980;SDS011;2507;50.392;7.482;2023-07-20T05:28:21;3.30;;;3.10;;
4980;SDS011;2507;50.392;7.482;2023-07-20T05:30:47;3.00;;;2.80;;
4980;SDS011;2507;50.392;7.482;2023-07-20T05:33:12;4.20;;;3.70;;
4980;SDS011;2507;50.392;7.482;2023-07-20T05:35:37;5.63;;;3.13;;
4980;SDS011;2507;50.392;7.482;2023-07-20T05:38:03;6.47;;;3.33;;
4980;SDS011;2507;50.392;7.482;2023-07-20T05:40:30;8.00;;;3.37;;
4980;SDS011;2507;50.392;7.482;2023-07-20T05:42:55;9.00;;;2.50;;
4980;SDS011;2507;50.392;7.482;2023-07-20T05:45:22;5.70;;;3.23;;
4980;SDS011;2507;50.392;7.482;2023-07-20T05:47:47;12.90;;;3.00;;
4980;SDS011;2507;50.392;7.482;2023-07-20T05:50:12;7.73;;;3.67;;
4980;SDS011;2507;50.392;7.482;2023-07-20T05:52:38;3.40;;;2.60;;
4980;SDS011;2507;50.392;7.482;2023-07-20T05:55:04;5.60;;;2.60;;
4980;SDS011;2507;50.392;7.482;2023-07-20T05:57:30;11.43;;;3.73;;
4980;SDS011;2507;50.392;7.482;2023-07-20T05:59:55;8.60;;;3.33;;
4980;SDS011;2507;50.392;7.482;2023-07-20T06:02:20;7.93;;;3.00;;
4980;SDS011;2507;50.392;7.482;2023-07-20T06:04:46;7.00;;;3.13;;
4980;SDS011;2507;50.392;7.482;2023-07-20T06:07:12;4.47;;;3.10;;
4980;SDS011;2507;50.392;7.482;2023-07-20T06:09:38;4.70;;;3.20;;
4980;SDS011;2507;50.392;7.482;2023-07-20T06:12:03;4.10;;;2.97;;
4980;SDS011;2507;50.392;7.482;2023-07-20T06:14:29;8.80;;;2.80;;
4980;SDS011;2507;50.392;7.482;2023-07-20T06:16:54;8.60;;;2.40;;
4980;SDS011;2507;50.392;7.482;2023-07-20T06:19:20;7.50;;;2.43;;
4980;SDS011;2507;50.392;7.482;2023-07-20T06:21:47;4.87;;;2.63;;
4980;SDS011;2507;50.392;7.482;2023-07-20T06:24:12;6.93;;;2.57;;
4980;SDS011;2507;50.392;7.482;2023-07-20T06:26:37;4.20;;;2.77;;
4980;SDS011;2507;50.392;7.482;2023-07-20T06:29:07;2.70;;;2.37;;
4980;SDS011;2507;50.392;7.482;2023-07-20T06:31:33;8.80;;;3.00;;
4980;SDS011;2507;50.392;7.482;2023-07-20T06:33:59;4.93;;;2.47;;
4980;SDS011;2507;50.392;7.482;2023-07-20T06:36:24;4.67;;;2.50;;
4980;SDS011;2507;50.392;7.482;2023-07-20T06:38:51;3.60;;;2.70;;
4980;SDS011;2507;50.392;7.482;2023-07-20T06:41:16;8.87;;;3.20;;
4980;SDS011;2507;50.392;7.482;2023-07-20T06:43:41;3.63;;;2.63;;
4980;SDS011;2507;50.392;7.482;2023-07-20T06:46:07;14.07;;;2.70;;
4980;SDS011;2507;50.392;7.482;2023-07-20T06:48:32;6.83;;;3.00;;
4980;SDS011;2507;50.392;7.482;2023-07-20T06:50:58;5.00;;;2.60;;
4980;SDS011;2507;50.392;7.482;2023-07-20T06:53:23;5.63;;;2.70;;
4980;SDS011;2507;50.392;7.482;2023-07-20T06:55:49;3.87;;;2.93;;
4980;SDS011;2507;50.392;7.482;2023-07-20T06:58:14;9.27;;;3.47;;
4980;SDS011;2507;50.392;7.482;2023-07-20T07:00:40;4.27;;;3.30;;
4980;SDS011;2507;50.392;7.482;2023-07-20T07:03:05;3.73;;;2.83;;
4980;SDS011;2507;50.392;7.482;2023-07-20T07:05:32;5.00;;;3.50;;
4980;SDS011;2507;50.392;7.482;2023-07-20T07:08:00;4.20;;;2.60;;
4980;SDS011;2507;50.392;7.482;2023-07-20T07:10:25;4.57;;;3.13;;
4980;SDS011;2507;50.392;7.482;2023-07-20T07:12:51;3.00;;;2.77;;
4980;SDS011;2507;50.392;7.482;2023-07-20T07:15:16;5.63;;;3.87;;
4980;SDS011;2507;50.392;7.482;2023-07-20T07:17:41;3.90;;;2.77;;
4980;SDS011;2507;50.392;7.482;2023-07-20T07:20:08;3.50;;;3.20;;
4980;SDS011;2507;50.392;7.482;2023-07-20T07:22:33;7.60;;;3.57;;
4980;SDS011;2507;50.392;7.482;2023-07-20T07:24:59;7.37;;;2.97;;
4980;SDS011;2507;50.392;7.482;2023-07-20T07:27:24;7.43;;;3.20;;
4980;SDS011;2507;50.392;7.482;2023-07-20T07:29:49;5.70;;;3.10;;
4980;SDS011;2507;50.392;7.482;2023-07-20T07:32:15;4.40;;;3.50;;
4980;SDS011;2507;50.392;7.482;2023-07-20T07:34:40;6.00;;;3.17;;
4980;SDS011;2507;50.392;7.482;2023-07-20T07:37:06;4.67;;;2.30;;
4980;SDS011;2507;50.392;7.482;2023-07-20T07:39:32;4.70;;;3.03;;
4980;SDS011;2507;50.392;7.482;2023-07-20T07:41:57;3.33;;;2.40;;
4980;SDS011;2507;50.392;7.482;2023-07-20T07:44:23;2.70;;;2.50;;
4980;SDS011;2507;50.392;7.482;2023-07-20T07:46:49;7.00;;;3.00;;
4980;SDS011;2507;50.392;7.482;2023-07-20T07:49:15;2.80;;;2.20;;
4980;SDS011;2507;50.392;7.482;2023-07-20T07:51:40;3.33;;;2.80;;
4980;SDS011;2507;50.392;7.482;2023-07-20T07:54:06;2.80;;;2.70;;
4980;SDS011;2507;50.392;7.482;2023-07-20T07:56:31;3.90;;;2.80;;
4980;SDS011;2507;50.392;7.482;2023-07-20T07:58:56;6.33;;;2.70;;
4980;SDS011;2507;50.392;7.482;2023-07-20T08:01:21;6.90;;;3.83;;
4980;SDS011;2507;50.392;7.482;2023-07-20T08:03:47;3.47;;;3.07;;
4980;SDS011;2507;50.392;7.482;2023-07-20T08:06:13;4.17;;;2.80;;
4980;SDS011;2507;50.392;7.482;2023-07-20T08:08:38;3.17;;;2.40;;
4980;SDS011;2507;50.392;7.482;2023-07-20T08:11:04;6.20;;;3.13;;
4980;SDS011;2507;50.392;7.482;2023-07-20T08:13:30;6.47;;;2.43;;
4980;SDS011;2507;50.392;7.482;2023-07-20T08:15:55;3.53;;;2.00;;
4980;SDS011;2507;50.392;7.482;2023-07-20T08:18:20;2.70;;;2.50;;
4980;SDS011;2507;50.392;7.482;2023-07-20T08:20:46;1.70;;;1.60;;
4980;SDS011;2507;50.392;7.482;2023-07-20T08:23:12;2.30;;;1.63;;
4980;SDS011;2507;50.392;7.482;2023-07-20T08:25:38;1.90;;;1.80;;
4980;SDS011;2507;50.392;7.482;2023-07-20T08:28:06;1.60;;;1.23;;
4980;SDS011;2507;50.392;7.482;2023-07-20T08:33:07;1.53;;;1.40;;
4980;SDS011;2507;50.392;7.482;2023-07-20T08:35:33;2.10;;;1.67;;
4980;SDS011;2507;50.392;7.482;2023-07-20T08:37:58;1.75;;;1.30;;
4980;SDS011;2507;50.392;7.482;2023-07-20T08:40:23;1.60;;;1.50;;
4980;SDS011;2507;50.392;7.482;2023-07-20T08:42:49;2.13;;;1.60;;
4980;SDS011;2507;50.392;7.482;2023-07-20T08:45:15;2.17;;;1.73;;
4980;SDS011;2507;50.392;7.482;2023-07-20T08:47:42;2.33;;;1.90;;
4980;SDS011;2507;50.392;7.482;2023-07-20T08:50:09;2.70;;;1.90;;
4980;SDS011;2507;50.392;7.482;2023-07-20T08:52:35;3.03;;;1.90;;
4980;SDS011;2507;50.392;7.482;2023-07-20T08:55:00;2.50;;;1.50;;
4980;SDS011;2507;50.392;7.482;2023-07-20T08:57:28;4.97;;;2.30;;
4980;SDS011;2507;50.392;7.482;2023-07-20T08:59:56;2.83;;;2.17;;
4980;SDS011;2507;50.392;7.482;2023-07-20T09:02:22;3.20;;;1.70;;
4980;SDS011;2507;50.392;7.482;2023-07-20T09:04:50;2.30;;;1.60;;
4980;SDS011;2507;50.392;7.482;2023-07-20T09:07:15;1.80;;;1.70;;
4980;SDS011;2507;50.392;7.482;2023-07-20T09:09:40;2.20;;;1.83;;
4980;SDS011;2507;50.392;7.482;2023-07-20T09:12:15;2.00;;;1.90;;
4980;SDS011;2507;50.392;7.482;2023-07-20T09:14:42;3.77;;;2.10;;
4980;SDS011;2507;50.392;7.482;2023-07-20T09:17:08;3.43;;;2.20;;
4980;SDS011;2507;50.392;7.482;2023-07-20T09:19:38;1.70;;;1.70;;
4980;SDS011;2507;50.392;7.482;2023-07-20T09:22:03;2.40;;;1.70;;
4980;SDS011;2507;50.392;7.482;2023-07-20T09:24:31;1.70;;;1.60;;
4980;SDS011;2507;50.392;7.482;2023-07-20T09:26:57;1.60;;;1.50;;
4980;SDS011;2507;50.392;7.482;2023-07-20T09:29:26;1.57;;;1.47;;
4980;SDS011;2507;50.392;7.482;2023-07-20T09:32:04;10.07;;;1.87;;
4980;SDS011;2507;50.392;7.482;2023-07-20T09:34:30;3.37;;;2.13;;
4980;SDS011;2507;50.392;7.482;2023-07-20T09:36:59;1.57;;;1.47;;
4980;SDS011;2507;50.392;7.482;2023-07-20T09:39:25;5.40;;;2.40;;
4980;SDS011;2507;50.392;7.482;2023-07-20T09:41:51;3.27;;;2.10;;
4980;SDS011;2507;50.392;7.482;2023-07-20T09:44:16;1.70;;;1.60;;
4980;SDS011;2507;50.392;7.482;2023-07-20T09:46:43;6.37;;;2.00;;
4980;SDS011;2507;50.392;7.482;2023-07-20T09:49:10;1.40;;;1.30;;
4980;SDS011;2507;50.392;7.482;2023-07-20T09:51:36;2.23;;;2.00;;
4980;SDS011;2507;50.392;7.482;2023-07-20T09:54:02;1.70;;;1.60;;
4980;SDS011;2507;50.392;7.482;2023-07-20T09:56:28;2.43;;;2.23;;
4980;SDS011;2507;50.392;7.482;2023-07-20T09:58:55;3.03;;;1.93;;
4980;SDS011;2507;50.392;7.482;2023-07-20T10:01:21;3.13;;;2.10;;
4980;SDS011;2507;50.392;7.482;2023-07-20T10:03:47;2.07;;;1.90;;
4980;SDS011;2507;50.392;7.482;2023-07-20T10:06:17;1.80;;;1.70;;
4980;SDS011;2507;50.392;7.482;2023-07-20T10:08:48;6.00;;;1.80;;
4980;SDS011;2507;50.392;7.482;2023-07-20T10:11:16;1.43;;;1.33;;
4980;SDS011;2507;50.392;7.482;2023-07-20T10:13:42;2.50;;;1.97;;
4980;SDS011;2507;50.392;7.482;2023-07-20T10:16:12;1.90;;;1.60;;
4980;SDS011;2507;50.392;7.482;2023-07-20T10:21:32;6.00;;;1.70;;
4980;SDS011;2507;50.392;7.482;2023-07-20T10:24:00;1.93;;;1.37;;
4980;SDS011;2507;50.392;7.482;2023-07-20T10:26:27;5.77;;;1.70;;
4980;SDS011;2507;50.392;7.482;2023-07-20T10:28:53;2.50;;;1.57;;
4980;SDS011;2507;50.392;7.482;2023-07-20T10:31:19;1.83;;;1.43;;
4980;SDS011;2507;50.392;7.482;2023-07-20T10:33:44;1.53;;;1.43;;
4980;SDS011;2507;50.392;7.482;2023-07-20T10:36:11;5.90;;;1.97;;
4980;SDS011;2507;50.392;7.482;2023-07-20T10:41:28;1.57;;;1.47;;
4980;SDS011;2507;50.392;7.482;2023-07-20T10:44:01;1.43;;;1.33;;
4980;SDS011;2507;50.392;7.482;2023-07-20T10:46:34;1.47;;;1.30;;
4980;SDS011;2507;50.392;7.482;2023-07-20T10:49:03;1.50;;;1.40;;
4980;SDS011;2507;50.392;7.482;2023-07-20T10:51:30;3.77;;;1.80;;
4980;SDS011;2507;50.392;7.482;2023-07-20T10:54:03;2.30;;;1.73;;
4980;SDS011;2507;50.392;7.482;2023-07-20T10:56:28;2.03;;;1.93;;
4980;SDS011;2507;50.392;7.482;2023-07-20T10:58:58;2.13;;;1.60;;
4980;SDS011;2507;50.392;7.482;2023-07-20T11:01:27;3.63;;;1.83;;
4980;SDS011;2507;50.392;7.482;2023-07-20T11:03:57;1.70;;;1.60;;
4980;SDS011;2507;50.392;7.482;2023-07-20T11:08:55;2.40;;;1.50;;
4980;SDS011;2507;50.392;7.482;2023-07-20T11:11:22;1.50;;;1.10;;
4980;SDS011;2507;50.392;7.482;2023-07-20T11:14:09;1.60;;;1.50;;
4980;SDS011;2507;50.392;7.482;2023-07-20T11:16:48;1.73;;;1.63;;
4980;SDS011;2507;50.392;7.482;2023-07-20T11:19:22;3.17;;;1.60;;
4980;SDS011;2507;50.392;7.482;2023-07-20T11:21:50;1.63;;;1.20;;
4980;SDS011;2507;50.392;7.482;2023-07-20T11:24:17;3.10;;;1.83;;
4980;SDS011;2507;50.392;7.482;2023-07-20T11:26:47;2.43;;;1.70;;
4980;SDS011;2507;50.392;7.482;2023-07-20T11:29:20;1.63;;;1.40;;
4980;SDS011;2507;50.392;7.482;2023-07-20T11:31:47;10.97;;;1.90;;
4980;SDS011;2507;50.392;7.482;2023-07-20T11:34:13;1.47;;;1.37;;
4980;SDS011;2507;50.392;7.482;2023-07-20T11:36:43;2.37;;;1.80;;
4980;SDS011;2507;50.392;7.482;2023-07-20T11:39:10;1.50;;;1.40;;
4980;SDS011;2507;50.392;7.482;2023-07-20T11:41:39;3.87;;;1.40;;
4980;SDS011;2507;50.392;7.482;2023-07-20T11:44:09;1.47;;;1.37;;
4980;SDS011;2507;50.392;7.482;2023-07-20T11:46:38;2.00;;;1.67;;
4980;SDS011;2507;50.392;7.482;2023-07-20T11:49:04;1.10;;;1.10;;
4980;SDS011;2507;50.392;7.482;2023-07-20T11:51:30;1.83;;;1.73;;
4980;SDS011;2507;50.392;7.482;2023-07-20T11:53:56;1.60;;;1.50;;
4980;SDS011;2507;50.392;7.482;2023-07-20T11:56:23;1.80;;;1.27;;
4980;SDS011;2507;50.392;7.482;2023-07-20T11:58:49;2.40;;;1.10;;
4980;SDS011;2507;50.392;7.482;2023-07-20T12:01:15;2.33;;;1.70;;
4980;SDS011;2507;50.392;7.482;2023-07-20T12:03:43;3.73;;;2.07;;
4980;SDS011;2507;50.392;7.482;2023-07-20T12:06:12;3.00;;;1.63;;
4980;SDS011;2507;50.392;7.482;2023-07-20T12:08:38;4.10;;;1.37;;
4980;SDS011;2507;50.392;7.482;2023-07-20T12:11:07;1.50;;;1.13;;
4980;SDS011;2507;50.392;7.482;2023-07-20T12:13:36;3.23;;;1.47;;
4980;SDS011;2507;50.392;7.482;2023-07-20T12:16:09;3.80;;;1.57;;
4980;SDS011;2507;50.392;7.482;2023-07-20T12:18:35;4.63;;;1.47;;
4980;SDS011;2507;50.392;7.482;2023-07-20T12:21:01;1.23;;;0.97;;
4980;SDS011;2507;50.392;7.482;2023-07-20T12:23:34;1.50;;;1.40;;
4980;SDS011;2507;50.392;7.482;2023-07-20T12:26:00;5.40;;;1.53;;
4980;SDS011;2507;50.392;7.482;2023-07-20T12:28:25;1.40;;;1.20;;
4980;SDS011;2507;50.392;7.482;2023-07-20T12:30:51;1.33;;;1.10;;
4980;SDS011;2507;50.392;7.482;2023-07-20T12:33:21;1.33;;;1.10;;
4980;SDS011;2507;50.392;7.482;2023-07-20T12:35:47;7.70;;;1.37;;
4980;SDS011;2507;50.392;7.482;2023-07-20T12:38:13;2.10;;;1.30;;
4980;SDS011;2507;50.392;7.482;2023-07-20T12:40:38;1.50;;;1.40;;
4980;SDS011;2507;50.392;7.482;2023-07-20T12:43:05;4.57;;;1.43;;
4980;SDS011;2507;50.392;7.482;2023-07-20T12:45:32;6.60;;;5.10;;
4980;SDS011;2507;50.392;7.482;2023-07-20T12:47:57;8.13;;;1.90;;
4980;SDS011;2507;50.392;7.482;2023-07-20T12:50:23;5.57;;;1.33;;
4980;SDS011;2507;50.392;7.482;2023-07-20T12:52:48;4.57;;;1.70;;
4980;SDS011;2507;50.392;7.482;2023-07-20T12:55:13;5.83;;;1.20;;
4980;SDS011;2507;50.392;7.482;2023-07-20T12:57:40;2.20;;;1.10;;
4980;SDS011;2507;50.392;7.482;2023-07-20T13:00:06;1.53;;;1.20;;
4980;SDS011;2507;50.392;7.482;2023-07-20T13:02:33;1.23;;;1.10;;
4980;SDS011;2507;50.392;7.482;2023-07-20T13:04:59;3.40;;;1.30;;
4980;SDS011;2507;50.392;7.482;2023-07-20T13:07:32;3.23;;;1.47;;
4980;SDS011;2507;50.392;7.482;2023-07-20T13:09:59;0.90;;;0.90;;
4980;SDS011;2507;50.392;7.482;2023-07-20T13:12:25;1.50;;;1.40;;
4980;SDS011;2507;50.392;7.482;2023-07-20T13:14:51;2.00;;;1.20;;
4980;SDS011;2507;50.392;7.482;2023-07-20T13:17:17;2.13;;;1.07;;
4980;SDS011;2507;50.392;7.482;2023-07-20T13:19:42;2.70;;;1.50;;
4980;SDS011;2507;50.392;7.482;2023-07-20T13:22:07;4.20;;;1.20;;
4980;SDS011;2507;50.392;7.482;2023-07-20T13:24:33;7.90;;;1.40;;
4980;SDS011;2507;50.392;7.482;2023-07-20T13:26:58;1.07;;;1.07;;
4980;SDS011;2507;50.392;7.482;2023-07-20T13:29:24;1.43;;;1.33;;
4980;SDS011;2507;50.392;7.482;2023-07-20T13:31:49;1.73;;;1.40;;
4980;SDS011;2507;50.392;7.482;2023-07-20T13:34:15;2.77;;;1.40;;
4980;SDS011;2507;50.392;7.482;2023-07-20T13:36:40;1.10;;;1.10;;
4980;SDS011;2507;50.392;7.482;2023-07-20T13:39:05;1.33;;;1.20;;
4980;SDS011;2507;50.392;7.482;2023-07-20T13:41:31;5.50;;;1.30;;
4980;SDS011;2507;50.392;7.482;2023-07-20T13:43:57;8.60;;;1.93;;
4980;SDS011;2507;50.392;7.482;2023-07-20T13:46:22;10.50;;;1.50;;
4980;SDS011;2507;50.392;7.482;2023-07-20T13:48:48;1.00;;;1.00;;
4980;SDS011;2507;50.392;7.482;2023-07-20T13:51:13;1.93;;;1.47;;
4980;SDS011;2507;50.392;7.482;2023-07-20T13:53:39;2.60;;;1.17;;
4980;SDS011;2507;50.392;7.482;2023-07-20T13:56:04;1.03;;;1.03;;
4980;SDS011;2507;50.392;7.482;2023-07-20T13:58:30;3.03;;;1.37;;
4980;SDS011;2507;50.392;7.482;2023-07-20T14:00:55;1.20;;;1.20;;
4980;SDS011;2507;50.392;7.482;2023-07-20T14:03:20;1.50;;;1.40;;
4980;SDS011;2507;50.392;7.482;2023-07-20T14:05:46;3.53;;;1.20;;
4980;SDS011;2507;50.392;7.482;2023-07-20T14:08:11;1.23;;;1.20;;
4980;SDS011;2507;50.392;7.482;2023-07-20T14:10:36;1.43;;;1.30;;
4980;SDS011;2507;50.392;7.482;2023-07-20T14:13:02;1.80;;;1.47;;
4980;SDS011;2507;50.392;7.482;2023-07-20T14:15:27;2.53;;;1.17;;
4980;SDS011;2507;50.392;7.482;2023-07-20T14:17:52;1.43;;;1.23;;
4980;SDS011;2507;50.392;7.482;2023-07-20T14:20:18;2.60;;;1.70;;
4980;SDS011;2507;50.392;7.482;2023-07-20T14:22:43;2.47;;;1.00;;
4980;SDS011;2507;50.392;7.482;2023-07-20T14:25:09;1.23;;;1.23;;
4980;SDS011;2507;50.392;7.482;2023-07-20T14:27:35;1.37;;;1.27;;
4980;SDS011;2507;50.392;7.482;2023-07-20T14:30:00;1.40;;;1.33;;
4980;SDS011;2507;50.392;7.482;2023-07-20T14:32:25;1.57;;;1.40;;
4980;SDS011;2507;50.392;7.482;2023-07-20T14:34:51;2.07;;;1.07;;
4980;SDS011;2507;50.392;7.482;2023-07-20T14:37:16;1.47;;;1.37;;
4980;SDS011;2507;50.392;7.482;2023-07-20T14:39:41;1.33;;;1.27;;
4980;SDS011;2507;50.392;7.482;2023-07-20T14:42:07;1.80;;;1.70;;
4980;SDS011;2507;50.392;7.482;2023-07-20T14:44:32;1.70;;;1.60;;
4980;SDS011;2507;50.392;7.482;2023-07-20T14:46:58;1.43;;;1.23;;
4980;SDS011;2507;50.392;7.482;2023-07-20T14:49:25;1.47;;;1.30;;
4980;SDS011;2507;50.392;7.482;2023-07-20T14:51:50;1.13;;;1.13;;
4980;SDS011;2507;50.392;7.482;2023-07-20T14:54:18;2.00;;;1.13;;
4980;SDS011;2507;50.392;7.482;2023-07-20T14:56:49;1.37;;;1.00;;
4980;SDS011;2507;50.392;7.482;2023-07-20T14:59:17;1.23;;;1.23;;
4980;SDS011;2507;50.392;7.482;2023-07-20T15:01:43;1.40;;;1.30;;
4980;SDS011;2507;50.392;7.482;2023-07-20T15:04:10;1.27;;;1.10;;
4980;SDS011;2507;50.392;7.482;2023-07-20T15:06:36;1.20;;;1.20;;
4980;SDS011;2507;50.392;7.482;2023-07-20T15:09:02;1.47;;;1.23;;
4980;SDS011;2507;50.392;7.482;2023-07-20T15:11:28;1.27;;;1.20;;
4980;SDS011;2507;50.392;7.482;2023-07-20T15:13:54;1.47;;;1.17;;
4980;SDS011;2507;50.392;7.482;2023-07-20T15:16:19;1.63;;;1.20;;
4980;SDS011;2507;50.392;7.482;2023-07-20T15:18:45;2.33;;;1.30;;
4980;SDS011;2507;50.392;7.482;2023-07-20T15:21:10;1.40;;;1.30;;
4980;SDS011;2507;50.392;7.482;2023-07-20T15:23:35;1.23;;;1.10;;
4980;SDS011;2507;50.392;7.482;2023-07-20T15:26:01;1.90;;;1.23;;
4980;SDS011;2507;50.392;7.482;2023-07-20T15:28:26;2.70;;;1.30;;